PWSweather.com
Personal Weather Stations
Station Observations
KUCEROV1
Npr Větrníky, VyskovCZ 68201

Npr VětrníkyVyskovCZ 68201

Lat: 49.219314, Lon: 17.009937

Elevation: 1001

Station Type: WH2080

pocasi.kucerov.homenet.org

High Low Average
Temperature 53.6°F12.0°C 46.9°F8.3°C 51.4°F10.8°C
Dew Point 49.0°F9.4°C 45.3°F7.4°C 47.9°F8.8°C
Winds 10.9 mph 17.5 kmh Calm Calm 4.0 mph SSE6.4 kmh SSE
Wind Gusts 25.9 mph41.7 kmh 1.6 mph2.6 kmh 10.0 mph16.1 kmh
Humidity 96% 82% 88%
Pressure 30.01 in1016.3 mb 29.77 in1008.1 mb -
Precipitation 0.00 in0.0 mm - -
Hour Temp Dew Point Humidity Winds Wind Gusts Pressure Precip Precip Rate Daily Precip Total
12:00 AM 48.6°F9.2°C 47.0°F8.3°C 94% 2.0 mph NNW3.2 kmh NNW 3.8 mph6.1 kmh 29.81 in1009.5 mb 0.00 in0.0 mm 0.00 in0.0 mm 0.00 in0.0 mm
12:05 AM 48.6°F9.2°C 46.9°F8.3°C 94% 0.7 mph NE1.1 kmh NE 2.2 mph3.5 kmh 29.81 in1009.5 mb 0.00 in0.0 mm 0.00 in0.0 mm 0.00 in0.0 mm
12:10 AM 48.6°F9.2°C 47.0°F8.3°C 94% 1.2 mph ENE1.9 kmh ENE 4.5 mph7.2 kmh 29.81 in1009.5 mb 0.00 in0.0 mm 0.00 in0.0 mm 0.00 in0.0 mm
12:15 AM 48.9°F9.4°C 47.4°F8.6°C 94% 1.5 mph NW2.4 kmh NW 3.8 mph6.1 kmh 29.81 in1009.5 mb 0.00 in0.0 mm 0.00 in0.0 mm 0.00 in0.0 mm
12:20 AM 49.0°F9.4°C 47.6°F8.7°C 95% 1.9 mph N3.1 kmh N 3.8 mph6.1 kmh 29.81 in1009.5 mb 0.00 in0.0 mm 0.00 in0.0 mm 0.00 in0.0 mm
12:25 AM 49.1°F9.5°C 47.7°F8.7°C 95% 1.8 mph NE2.9 kmh NE 3.8 mph6.1 kmh 29.81 in1009.5 mb 0.00 in0.0 mm 0.00 in0.0 mm 0.00 in0.0 mm
12:30 AM 49.3°F9.6°C 47.9°F8.8°C 95% 1.1 mph NNE1.8 kmh NNE 4.5 mph7.2 kmh 29.81 in1009.5 mb 0.00 in0.0 mm 0.00 in0.0 mm 0.00 in0.0 mm
12:35 AM 49.2°F9.6°C 47.8°F8.8°C 95% 1.8 mph NW2.9 kmh NW 5.4 mph8.7 kmh 29.81 in1009.5 mb 0.00 in0.0 mm 0.00 in0.0 mm 0.00 in0.0 mm
12:40 AM 49.2°F9.6°C 47.8°F8.8°C 95% 2.4 mph N3.9 kmh N 4.5 mph7.2 kmh 29.81 in1009.5 mb 0.00 in0.0 mm 0.00 in0.0 mm 0.00 in0.0 mm
12:45 AM 49.4°F9.7°C 48.0°F8.9°C 95% 2.3 mph NW3.7 kmh NW 5.4 mph8.7 kmh 29.81 in1009.5 mb 0.00 in0.0 mm 0.00 in0.0 mm 0.00 in0.0 mm
12:50 AM 49.6°F9.8°C 48.2°F9.0°C 95% 1.2 mph NNE1.9 kmh NNE 3.8 mph6.1 kmh 29.81 in1009.5 mb 0.00 in0.0 mm 0.00 in0.0 mm 0.00 in0.0 mm
12:55 AM 49.8°F9.9°C 48.4°F9.1°C 95% 3.2 mph E5.1 kmh E 8.3 mph13.4 kmh 29.81 in1009.5 mb 0.00 in0.0 mm 0.00 in0.0 mm 0.00 in0.0 mm
01:00 AM 50.0°F10.0°C 48.3°F9.1°C 94% 2.0 mph NE3.2 kmh NE 4.5 mph7.2 kmh 29.81 in1009.5 mb 0.00 in0.0 mm 0.00 in0.0 mm 0.00 in0.0 mm
01:05 AM 50.1°F10.1°C 48.4°F9.1°C 94% 2.9 mph NE4.7 kmh NE 9.8 mph15.8 kmh 29.81 in1009.5 mb 0.00 in0.0 mm 0.00 in0.0 mm 0.00 in0.0 mm
01:10 AM 50.4°F10.2°C 48.7°F9.3°C 94% 2.2 mph N3.5 kmh N 5.4 mph8.7 kmh 29.81 in1009.5 mb 0.00 in0.0 mm 0.00 in0.0 mm 0.00 in0.0 mm
01:15 AM 50.5°F10.3°C 48.6°F9.2°C 93% 2.6 mph ENE4.2 kmh ENE 4.5 mph7.2 kmh 29.81 in1009.5 mb 0.00 in0.0 mm 0.00 in0.0 mm 0.00 in0.0 mm
01:20 AM 50.7°F10.4°C 48.7°F9.3°C 93% 1.5 mph NW2.4 kmh NW 3.8 mph6.1 kmh 29.81 in1009.5 mb 0.00 in0.0 mm 0.00 in0.0 mm 0.00 in0.0 mm
01:25 AM 50.7°F10.4°C 48.7°F9.3°C 93% 1.1 mph NW1.8 kmh NW 3.1 mph5.0 kmh 29.82 in1009.8 mb 0.00 in0.0 mm 0.00 in0.0 mm 0.00 in0.0 mm
01:30 AM 50.5°F10.3°C 48.6°F9.2°C 93% 1.9 mph NNW3.1 kmh NNW 3.8 mph6.1 kmh 29.82 in1009.8 mb 0.00 in0.0 mm 0.00 in0.0 mm 0.00 in0.0 mm
01:35 AM 50.5°F10.3°C 48.2°F9.0°C 92% 2.1 mph N3.4 kmh N 3.8 mph6.1 kmh 29.81 in1009.5 mb 0.00 in0.0 mm 0.00 in0.0 mm 0.00 in0.0 mm
01:40 AM 50.4°F10.2°C 48.1°F8.9°C 92% 2.5 mph NE4.0 kmh NE 6.0 mph9.7 kmh 29.81 in1009.5 mb 0.00 in0.0 mm 0.00 in0.0 mm 0.00 in0.0 mm
01:45 AM 50.5°F10.3°C 48.4°F9.1°C 92% 2.1 mph NE3.4 kmh NE 6.9 mph11.1 kmh 29.81 in1009.5 mb 0.00 in0.0 mm 0.00 in0.0 mm 0.00 in0.0 mm
01:50 AM 50.8°F10.4°C 48.8°F9.3°C 93% 3.5 mph ESE5.6 kmh ESE 7.6 mph12.2 kmh 29.81 in1009.5 mb 0.00 in0.0 mm 0.00 in0.0 mm 0.00 in0.0 mm
01:55 AM 51.0°F10.6°C 48.9°F9.4°C 93% 3.7 mph NE6.0 kmh NE 8.3 mph13.4 kmh 29.81 in1009.5 mb 0.00 in0.0 mm 0.00 in0.0 mm 0.00 in0.0 mm
02:00 AM 51.2°F10.7°C 48.9°F9.4°C 92% 3.2 mph ENE5.1 kmh ENE 7.6 mph12.2 kmh 29.81 in1009.5 mb 0.00 in0.0 mm 0.00 in0.0 mm 0.00 in0.0 mm
02:05 AM 51.3°F10.7°C 49.0°F9.4°C 92% 5.4 mph SW8.7 kmh SW 9.2 mph14.8 kmh 29.81 in1009.5 mb 0.00 in0.0 mm 0.00 in0.0 mm 0.00 in0.0 mm
02:10 AM 51.4°F10.8°C 49.0°F9.4°C 92% 4.6 mph SW7.4 kmh SW 9.2 mph14.8 kmh 29.81 in1009.5 mb 0.00 in0.0 mm 0.00 in0.0 mm 0.00 in0.0 mm
02:15 AM 51.7°F10.9°C 48.9°F9.4°C 90% 4.3 mph NNE6.9 kmh NNE 9.8 mph15.8 kmh 29.80 in1009.1 mb 0.00 in0.0 mm 0.00 in0.0 mm 0.00 in0.0 mm
02:20 AM 51.8°F11.0°C 48.7°F9.3°C 89% 4.8 mph E7.7 kmh E 9.8 mph15.8 kmh 29.81 in1009.5 mb 0.00 in0.0 mm 0.00 in0.0 mm 0.00 in0.0 mm
02:25 AM 51.8°F11.0°C 48.7°F9.3°C 89% 2.7 mph N4.3 kmh N 7.6 mph12.2 kmh 29.80 in1009.1 mb 0.00 in0.0 mm 0.00 in0.0 mm 0.00 in0.0 mm
02:30 AM 51.8°F11.0°C 48.6°F9.2°C 89% 5.9 mph E9.5 kmh E 11.4 mph18.3 kmh 29.80 in1009.1 mb 0.00 in0.0 mm 0.00 in0.0 mm 0.00 in0.0 mm
02:35 AM 51.8°F11.0°C 48.4°F9.1°C 88% 4.9 mph E7.9 kmh E 9.2 mph14.8 kmh 29.80 in1009.1 mb 0.00 in0.0 mm 0.00 in0.0 mm 0.00 in0.0 mm
02:40 AM 51.8°F11.0°C 48.4°F9.1°C 88% 4.7 mph E7.6 kmh E 10.7 mph17.2 kmh 29.79 in1008.8 mb 0.00 in0.0 mm 0.00 in0.0 mm 0.00 in0.0 mm
02:45 AM 51.8°F11.0°C 48.4°F9.1°C 88% 2.7 mph E4.3 kmh E 6.0 mph9.7 kmh 29.79 in1008.8 mb 0.00 in0.0 mm 0.00 in0.0 mm 0.00 in0.0 mm
02:50 AM 51.7°F10.9°C 48.4°F9.1°C 89% 2.0 mph NNE3.2 kmh NNE 5.4 mph8.7 kmh 29.79 in1008.8 mb 0.00 in0.0 mm 0.00 in0.0 mm 0.00 in0.0 mm
02:55 AM 51.5°F10.8°C 48.4°F9.1°C 89% 2.7 mph E4.3 kmh E 6.9 mph11.1 kmh 29.79 in1008.8 mb 0.00 in0.0 mm 0.00 in0.0 mm 0.00 in0.0 mm
03:00 AM 51.4°F10.8°C 48.3°F9.1°C 89% 4.5 mph SE7.2 kmh SE 9.8 mph15.8 kmh 29.79 in1008.8 mb 0.00 in0.0 mm 0.00 in0.0 mm 0.00 in0.0 mm
03:05 AM 51.6°F10.9°C 48.5°F9.2°C 89% 4.2 mph E6.8 kmh E 8.3 mph13.4 kmh 29.79 in1008.8 mb 0.00 in0.0 mm 0.00 in0.0 mm 0.00 in0.0 mm
03:10 AM 51.6°F10.9°C 48.6°F9.2°C 89% 5.8 mph E9.3 kmh E 14.5 mph23.3 kmh 29.78 in1008.5 mb 0.00 in0.0 mm 0.00 in0.0 mm 0.00 in0.0 mm
03:15 AM 51.6°F10.9°C 48.8°F9.3°C 90% 5.2 mph E8.4 kmh E 9.2 mph14.8 kmh 29.78 in1008.5 mb 0.00 in0.0 mm 0.00 in0.0 mm 0.00 in0.0 mm
03:20 AM 51.7°F10.9°C 48.6°F9.2°C 89% 4.0 mph E6.4 kmh E 9.2 mph14.8 kmh 29.78 in1008.5 mb 0.00 in0.0 mm 0.00 in0.0 mm 0.00 in0.0 mm
03:25 AM 51.8°F11.0°C 48.4°F9.1°C 88% 3.5 mph ESE5.6 kmh ESE 7.6 mph12.2 kmh 29.78 in1008.5 mb 0.00 in0.0 mm 0.00 in0.0 mm 0.00 in0.0 mm
03:30 AM 51.7°F10.9°C 48.4°F9.1°C 89% 3.6 mph ENE5.8 kmh ENE 9.2 mph14.8 kmh 29.78 in1008.5 mb 0.00 in0.0 mm 0.00 in0.0 mm 0.00 in0.0 mm
03:35 AM 51.7°F10.9°C 48.5°F9.2°C 89% 3.8 mph ENE6.1 kmh ENE 9.2 mph14.8 kmh 29.78 in1008.5 mb 0.00 in0.0 mm 0.00 in0.0 mm 0.00 in0.0 mm
03:40 AM 51.8°F11.0°C 48.7°F9.3°C 89% 4.5 mph E7.2 kmh E 9.8 mph15.8 kmh 29.78 in1008.5 mb 0.00 in0.0 mm 0.00 in0.0 mm 0.00 in0.0 mm
03:45 AM 51.7°F10.9°C 48.7°F9.3°C 89% 3.3 mph NNE5.3 kmh NNE 9.2 mph14.8 kmh 29.78 in1008.5 mb 0.00 in0.0 mm 0.00 in0.0 mm 0.00 in0.0 mm
03:50 AM 51.8°F11.0°C 48.7°F9.3°C 89% 3.5 mph N5.6 kmh N 6.0 mph9.7 kmh 29.79 in1008.8 mb 0.00 in0.0 mm 0.00 in0.0 mm 0.00 in0.0 mm
03:55 AM 51.8°F11.0°C 48.6°F9.2°C 89% 2.6 mph ENE4.2 kmh ENE 6.9 mph11.1 kmh 29.79 in1008.8 mb 0.00 in0.0 mm 0.00 in0.0 mm 0.00 in0.0 mm
04:00 AM 51.8°F11.0°C 48.6°F9.2°C 89% 2.5 mph N4.0 kmh N 5.4 mph8.7 kmh 29.79 in1008.8 mb 0.00 in0.0 mm 0.00 in0.0 mm 0.00 in0.0 mm
04:05 AM 51.8°F11.0°C 48.7°F9.3°C 89% 1.6 mph E2.6 kmh E 3.8 mph6.1 kmh 29.79 in1008.8 mb 0.00 in0.0 mm 0.00 in0.0 mm 0.00 in0.0 mm
04:10 AM 51.9°F11.1°C 48.7°F9.3°C 89% 2.9 mph E4.7 kmh E 8.3 mph13.4 kmh 29.78 in1008.5 mb 0.00 in0.0 mm 0.00 in0.0 mm 0.00 in0.0 mm
04:15 AM 52.0°F11.1°C 48.5°F9.2°C 88% 3.0 mph NE4.8 kmh NE 9.2 mph14.8 kmh 29.79 in1008.8 mb 0.00 in0.0 mm 0.00 in0.0 mm 0.00 in0.0 mm
04:20 AM 52.0°F11.1°C 48.6°F9.2°C 88% 3.3 mph N5.3 kmh N 9.2 mph14.8 kmh 29.79 in1008.8 mb 0.00 in0.0 mm 0.00 in0.0 mm 0.00 in0.0 mm
04:25 AM 52.2°F11.2°C 48.7°F9.3°C 88% 2.3 mph N3.7 kmh N 4.5 mph7.2 kmh 29.79 in1008.8 mb 0.00 in0.0 mm 0.00 in0.0 mm 0.00 in0.0 mm
04:30 AM 52.2°F11.2°C 48.6°F9.2°C 88% 3.5 mph NNE5.6 kmh NNE 6.0 mph9.7 kmh 29.79 in1008.8 mb 0.00 in0.0 mm 0.00 in0.0 mm 0.00 in0.0 mm
04:35 AM 52.2°F11.2°C 48.4°F9.1°C 87% 2.9 mph NNE4.7 kmh NNE 6.9 mph11.1 kmh 29.79 in1008.8 mb 0.00 in0.0 mm 0.00 in0.0 mm 0.00 in0.0 mm
04:40 AM 52.1°F11.2°C 48.3°F9.1°C 87% 2.3 mph 3.7 kmh 5.4 mph8.7 kmh 29.79 in1008.8 mb 0.00 in0.0 mm 0.00 in0.0 mm 0.00 in0.0 mm
04:45 AM 52.1°F11.2°C 48.3°F9.1°C 87% 3.3 mph N5.3 kmh N 8.3 mph13.4 kmh 29.79 in1008.8 mb 0.00 in0.0 mm 0.00 in0.0 mm 0.00 in0.0 mm
04:50 AM 52.2°F11.2°C 48.4°F9.1°C 87% 3.2 mph N5.1 kmh N 7.6 mph12.2 kmh 29.78 in1008.5 mb 0.00 in0.0 mm 0.00 in0.0 mm 0.00 in0.0 mm
04:55 AM 52.2°F11.2°C 48.4°F9.1°C 87% 3.0 mph E4.8 kmh E 6.0 mph9.7 kmh 29.78 in1008.5 mb 0.00 in0.0 mm 0.00 in0.0 mm 0.00 in0.0 mm
05:00 AM 52.2°F11.2°C 48.4°F9.1°C 87% 3.5 mph ENE5.6 kmh ENE 8.3 mph13.4 kmh 29.78 in1008.5 mb 0.00 in0.0 mm 0.00 in0.0 mm 0.00 in0.0 mm
05:05 AM 52.2°F11.2°C 48.4°F9.1°C 87% 3.4 mph NW5.5 kmh NW 9.8 mph15.8 kmh 29.78 in1008.5 mb 0.00 in0.0 mm 0.00 in0.0 mm 0.00 in0.0 mm
05:10 AM 52.2°F11.2°C 48.4°F9.1°C 87% 3.5 mph E5.6 kmh E 8.3 mph13.4 kmh 29.78 in1008.5 mb 0.00 in0.0 mm 0.00 in0.0 mm 0.00 in0.0 mm
05:15 AM 52.2°F11.2°C 48.4°F9.1°C 87% 4.5 mph SW7.2 kmh SW 9.2 mph14.8 kmh 29.78 in1008.5 mb 0.00 in0.0 mm 0.00 in0.0 mm 0.00 in0.0 mm
05:20 AM 52.2°F11.2°C 48.1°F8.9°C 86% 4.9 mph E7.9 kmh E 9.8 mph15.8 kmh 29.78 in1008.5 mb 0.00 in0.0 mm 0.00 in0.0 mm 0.00 in0.0 mm
05:25 AM 52.2°F11.2°C 48.1°F8.9°C 86% 5.0 mph SE8.0 kmh SE 10.7 mph17.2 kmh 29.77 in1008.1 mb 0.00 in0.0 mm 0.00 in0.0 mm 0.00 in0.0 mm
05:30 AM 52.3°F11.3°C 48.3°F9.1°C 86% 8.1 mph ENE13.0 kmh ENE 15.9 mph25.6 kmh 29.77 in1008.1 mb 0.00 in0.0 mm 0.00 in0.0 mm 0.00 in0.0 mm
05:35 AM 52.4°F11.3°C 48.2°F9.0°C 86% 6.1 mph E9.8 kmh E 13.6 mph21.9 kmh 29.77 in1008.1 mb 0.00 in0.0 mm 0.00 in0.0 mm 0.00 in0.0 mm
05:40 AM 52.5°F11.4°C 48.1°F8.9°C 85% 6.6 mph SE10.6 kmh SE 17.4 mph28.0 kmh 29.77 in1008.1 mb 0.00 in0.0 mm 0.00 in0.0 mm 0.00 in0.0 mm
05:45 AM 52.4°F11.3°C 48.0°F8.9°C 85% 5.3 mph NE8.5 kmh NE 13.0 mph20.9 kmh 29.77 in1008.1 mb 0.00 in0.0 mm 0.00 in0.0 mm 0.00 in0.0 mm
05:50 AM 52.3°F11.3°C 48.0°F8.9°C 85% 5.0 mph NE8.0 kmh NE 12.1 mph19.5 kmh 29.77 in1008.1 mb 0.00 in0.0 mm 0.00 in0.0 mm 0.00 in0.0 mm
05:55 AM 52.2°F11.2°C 47.8°F8.8°C 85% 7.1 mph E11.4 kmh E 13.6 mph21.9 kmh 29.77 in1008.1 mb 0.00 in0.0 mm 0.00 in0.0 mm 0.00 in0.0 mm
06:00 AM 52.2°F11.2°C 47.8°F8.8°C 85% 4.7 mph N7.6 kmh N 10.7 mph17.2 kmh 29.77 in1008.1 mb 0.00 in0.0 mm 0.00 in0.0 mm 0.00 in0.0 mm
06:05 AM 52.2°F11.2°C 47.8°F8.8°C 85% 4.5 mph NNW7.2 kmh NNW 8.3 mph13.4 kmh 29.77 in1008.1 mb 0.00 in0.0 mm 0.00 in0.0 mm 0.00 in0.0 mm
06:10 AM 52.2°F11.2°C 47.9°F8.8°C 85% 4.8 mph N7.7 kmh N 10.7 mph17.2 kmh 29.78 in1008.5 mb 0.00 in0.0 mm 0.00 in0.0 mm 0.00 in0.0 mm
06:15 AM 52.1°F11.2°C 48.0°F8.9°C 86% 5.9 mph NE9.5 kmh NE 14.5 mph23.3 kmh 29.77 in1008.1 mb 0.00 in0.0 mm 0.00 in0.0 mm 0.00 in0.0 mm
06:20 AM 52.0°F11.1°C 47.9°F8.8°C 86% 5.8 mph NE9.3 kmh NE 11.4 mph18.3 kmh 29.78 in1008.5 mb 0.00 in0.0 mm 0.00 in0.0 mm 0.00 in0.0 mm
06:25 AM 52.1°F11.2°C 48.1°F8.9°C 86% 8.5 mph ESE13.7 kmh ESE 19.0 mph30.6 kmh 29.78 in1008.5 mb 0.00 in0.0 mm 0.00 in0.0 mm 0.00 in0.0 mm
06:30 AM 52.2°F11.2°C 48.0°F8.9°C 86% 10.0 mph E16.1 kmh E 20.6 mph33.2 kmh 29.78 in1008.5 mb 0.00 in0.0 mm 0.00 in0.0 mm 0.00 in0.0 mm
06:35 AM 52.2°F11.2°C 47.8°F8.8°C 85% 9.2 mph ENE14.8 kmh ENE 17.4 mph28.0 kmh 29.77 in1008.1 mb 0.00 in0.0 mm 0.00 in0.0 mm 0.00 in0.0 mm
06:40 AM 52.3°F11.3°C 47.9°F8.8°C 85% 6.7 mph ENE10.8 kmh ENE 15.2 mph24.5 kmh 29.78 in1008.5 mb 0.00 in0.0 mm 0.00 in0.0 mm 0.00 in0.0 mm
06:45 AM 52.2°F11.2°C 47.9°F8.8°C 85% 7.7 mph E12.4 kmh E 19.0 mph30.6 kmh 29.78 in1008.5 mb 0.00 in0.0 mm 0.00 in0.0 mm 0.00 in0.0 mm
06:50 AM 52.3°F11.3°C 48.0°F8.9°C 85% 5.3 mph NNE8.5 kmh NNE 11.4 mph18.3 kmh 29.78 in1008.5 mb 0.00 in0.0 mm 0.00 in0.0 mm 0.00 in0.0 mm
06:55 AM 52.3°F11.3°C 48.0°F8.9°C 85% 5.6 mph ENE9.0 kmh ENE 9.8 mph15.8 kmh 29.77 in1008.1 mb 0.00 in0.0 mm 0.00 in0.0 mm 0.00 in0.0 mm
07:00 AM 52.4°F11.3°C 48.0°F8.9°C 85% 7.5 mph SE12.1 kmh SE 15.9 mph25.6 kmh 29.77 in1008.1 mb 0.00 in0.0 mm 0.00 in0.0 mm 0.00 in0.0 mm
07:05 AM 52.5°F11.4°C 48.1°F8.9°C 85% 7.0 mph NE11.3 kmh NE 13.6 mph21.9 kmh 29.78 in1008.5 mb 0.00 in0.0 mm 0.00 in0.0 mm 0.00 in0.0 mm
07:10 AM 52.5°F11.4°C 48.1°F8.9°C 85% 8.3 mph E13.4 kmh E 17.4 mph28.0 kmh 29.78 in1008.5 mb 0.00 in0.0 mm 0.00 in0.0 mm 0.00 in0.0 mm
07:15 AM 52.3°F11.3°C 48.0°F8.9°C 85% 8.1 mph E13.0 kmh E 20.6 mph33.2 kmh 29.77 in1008.1 mb 0.00 in0.0 mm 0.00 in0.0 mm 0.00 in0.0 mm
07:20 AM 52.3°F11.3°C 48.0°F8.9°C 86% 10.9 mph E17.5 kmh E 17.4 mph28.0 kmh 29.78 in1008.5 mb 0.00 in0.0 mm 0.00 in0.0 mm 0.00 in0.0 mm
07:25 AM 52.3°F11.3°C 48.3°F9.1°C 86% 10.0 mph ENE16.1 kmh ENE 25.9 mph41.7 kmh 29.78 in1008.5 mb 0.00 in0.0 mm 0.00 in0.0 mm 0.00 in0.0 mm
07:30 AM 52.3°F11.3°C 48.2°F9.0°C 86% 7.2 mph E11.6 kmh E 13.6 mph21.9 kmh 29.79 in1008.8 mb 0.00 in0.0 mm 0.00 in0.0 mm 0.00 in0.0 mm
07:35 AM 52.2°F11.2°C 48.1°F8.9°C 86% 7.6 mph NE12.2 kmh NE 17.4 mph28.0 kmh 29.80 in1009.1 mb 0.00 in0.0 mm 0.00 in0.0 mm 0.00 in0.0 mm
07:40 AM 52.3°F11.3°C 48.2°F9.0°C 86% 6.2 mph E10.0 kmh E 16.8 mph27.0 kmh 29.80 in1009.1 mb 0.00 in0.0 mm 0.00 in0.0 mm 0.00 in0.0 mm
07:45 AM 52.3°F11.3°C 48.3°F9.1°C 86% 9.1 mph NE14.6 kmh NE 20.6 mph33.2 kmh 29.80 in1009.1 mb 0.00 in0.0 mm 0.00 in0.0 mm 0.00 in0.0 mm
07:50 AM 52.3°F11.3°C 48.3°F9.1°C 86% 7.2 mph SE11.6 kmh SE 17.4 mph28.0 kmh 29.80 in1009.1 mb 0.00 in0.0 mm 0.00 in0.0 mm 0.00 in0.0 mm
07:55 AM 52.5°F11.4°C 48.1°F8.9°C 85% 6.3 mph E10.1 kmh E 15.9 mph25.6 kmh 29.80 in1009.1 mb 0.00 in0.0 mm 0.00 in0.0 mm 0.00 in0.0 mm
08:00 AM 52.5°F11.4°C 48.1°F8.9°C 85% 4.3 mph NE6.9 kmh NE 11.4 mph18.3 kmh 29.81 in1009.5 mb 0.00 in0.0 mm 0.00 in0.0 mm 0.00 in0.0 mm
08:05 AM 52.5°F11.4°C 48.1°F8.9°C 85% 8.3 mph E13.4 kmh E 11.4 mph18.3 kmh 29.80 in1009.1 mb 0.00 in0.0 mm 0.00 in0.0 mm 0.00 in0.0 mm
08:10 AM 52.5°F11.4°C 48.1°F8.9°C 85% 6.8 mph E10.9 kmh E 11.4 mph18.3 kmh 29.80 in1009.1 mb 0.00 in0.0 mm 0.00 in0.0 mm 0.00 in0.0 mm
08:15 AM 52.5°F11.4°C 48.1°F8.9°C 85% 4.3 mph ESE6.9 kmh ESE 8.3 mph13.4 kmh 29.81 in1009.5 mb 0.00 in0.0 mm 0.00 in0.0 mm 0.00 in0.0 mm
08:20 AM 52.5°F11.4°C 48.1°F8.9°C 85% 6.5 mph E10.5 kmh E 15.2 mph24.5 kmh 29.81 in1009.5 mb 0.00 in0.0 mm 0.00 in0.0 mm 0.00 in0.0 mm
08:25 AM 52.5°F11.4°C 48.1°F8.9°C 85% 7.7 mph SE12.4 kmh SE 19.0 mph30.6 kmh 29.81 in1009.5 mb 0.00 in0.0 mm 0.00 in0.0 mm 0.00 in0.0 mm
08:30 AM 52.7°F11.5°C 48.3°F9.1°C 85% 9.1 mph SE14.6 kmh SE 16.8 mph27.0 kmh 29.80 in1009.1 mb 0.00 in0.0 mm 0.00 in0.0 mm 0.00 in0.0 mm
08:35 AM 52.5°F11.4°C 48.2°F9.0°C 85% 9.5 mph E15.3 kmh E 16.8 mph27.0 kmh 29.79 in1008.8 mb 0.00 in0.0 mm 0.00 in0.0 mm 0.00 in0.0 mm
08:40 AM 52.5°F11.4°C 48.1°F8.9°C 85% 7.0 mph E11.3 kmh E 17.4 mph28.0 kmh 29.80 in1009.1 mb 0.00 in0.0 mm 0.00 in0.0 mm 0.00 in0.0 mm
08:45 AM 52.5°F11.4°C 48.1°F8.9°C 85% 4.1 mph SSW6.6 kmh SSW 12.1 mph19.5 kmh 29.82 in1009.8 mb 0.00 in0.0 mm 0.00 in0.0 mm 0.00 in0.0 mm
08:50 AM 52.5°F11.4°C 48.1°F8.9°C 85% 4.1 mph NE6.6 kmh NE 8.3 mph13.4 kmh 29.82 in1009.8 mb 0.00 in0.0 mm 0.00 in0.0 mm 0.00 in0.0 mm
08:55 AM 52.5°F11.4°C 48.2°F9.0°C 85% 7.3 mph E11.7 kmh E 15.9 mph25.6 kmh 29.81 in1009.5 mb 0.00 in0.0 mm 0.00 in0.0 mm 0.00 in0.0 mm
09:00 AM 52.7°F11.5°C 48.3°F9.1°C 85% 10.0 mph E16.1 kmh E 21.3 mph34.3 kmh 29.79 in1008.8 mb 0.00 in0.0 mm 0.00 in0.0 mm 0.00 in0.0 mm
09:05 AM 52.7°F11.5°C 48.3°F9.1°C 85% 7.3 mph NE11.7 kmh NE 15.9 mph25.6 kmh 29.80 in1009.1 mb 0.00 in0.0 mm 0.00 in0.0 mm 0.00 in0.0 mm
09:10 AM 52.7°F11.5°C 48.3°F9.1°C 85% 2.8 mph W4.5 kmh W 5.4 mph8.7 kmh 29.82 in1009.8 mb 0.00 in0.0 mm 0.00 in0.0 mm 0.00 in0.0 mm
09:15 AM 52.7°F11.5°C 48.3°F9.1°C 85% 3.2 mph ENE5.1 kmh ENE 11.4 mph18.3 kmh 29.82 in1009.8 mb 0.00 in0.0 mm 0.00 in0.0 mm 0.00 in0.0 mm
09:20 AM 52.5°F11.4°C 48.1°F8.9°C 85% 4.0 mph NE6.4 kmh NE 10.7 mph17.2 kmh 29.82 in1009.8 mb 0.00 in0.0 mm 0.00 in0.0 mm 0.00 in0.0 mm
09:25 AM 52.7°F11.5°C 48.3°F9.1°C 85% 3.1 mph W5.0 kmh W 8.3 mph13.4 kmh 29.83 in1010.2 mb 0.00 in0.0 mm 0.00 in0.0 mm 0.00 in0.0 mm
09:30 AM 52.7°F11.5°C 48.3°F9.1°C 85% 3.2 mph SW5.1 kmh SW 6.0 mph9.7 kmh 29.84 in1010.5 mb 0.00 in0.0 mm 0.00 in0.0 mm 0.00 in0.0 mm
09:35 AM 52.9°F11.6°C 48.5°F9.2°C 85% 2.7 mph SE4.3 kmh SE 7.6 mph12.2 kmh 29.83 in1010.2 mb 0.00 in0.0 mm 0.00 in0.0 mm 0.00 in0.0 mm
09:40 AM 52.9°F11.6°C 48.5°F9.2°C 85% 2.5 mph SSW4.0 kmh SSW 6.0 mph9.7 kmh 29.84 in1010.5 mb 0.00 in0.0 mm 0.00 in0.0 mm 0.00 in0.0 mm
09:45 AM 53.0°F11.7°C 48.6°F9.2°C 85% 3.7 mph SSE6.0 kmh SSE 7.6 mph12.2 kmh 29.84 in1010.5 mb 0.00 in0.0 mm 0.00 in0.0 mm 0.00 in0.0 mm
09:50 AM 53.1°F11.7°C 48.7°F9.3°C 85% 3.2 mph E5.1 kmh E 7.6 mph12.2 kmh 29.84 in1010.5 mb 0.00 in0.0 mm 0.00 in0.0 mm 0.00 in0.0 mm
09:55 AM 53.1°F11.7°C 48.4°F9.1°C 84% 5.2 mph ENE8.4 kmh ENE 13.0 mph20.9 kmh 29.83 in1010.2 mb 0.00 in0.0 mm 0.00 in0.0 mm 0.00 in0.0 mm
10:00 AM 53.2°F11.8°C 48.5°F9.2°C 84% 5.2 mph SE8.4 kmh SE 16.8 mph27.0 kmh 29.84 in1010.5 mb 0.00 in0.0 mm 0.00 in0.0 mm 0.00 in0.0 mm
10:05 AM 53.2°F11.8°C 48.5°F9.2°C 84% 7.6 mph SW12.2 kmh SW 16.8 mph27.0 kmh 29.83 in1010.2 mb 0.00 in0.0 mm 0.00 in0.0 mm 0.00 in0.0 mm
10:10 AM 53.2°F11.8°C 48.5°F9.2°C 84% 5.6 mph SW9.0 kmh SW 16.8 mph27.0 kmh 29.83 in1010.2 mb 0.00 in0.0 mm 0.00 in0.0 mm 0.00 in0.0 mm
10:15 AM 53.2°F11.8°C 48.5°F9.2°C 84% 4.5 mph SSW7.2 kmh SSW 15.9 mph25.6 kmh 29.83 in1010.2 mb 0.00 in0.0 mm 0.00 in0.0 mm 0.00 in0.0 mm
10:20 AM 53.4°F11.9°C 48.9°F9.4°C 84% 4.5 mph NE7.2 kmh NE 12.1 mph19.5 kmh 29.84 in1010.5 mb 0.00 in0.0 mm 0.00 in0.0 mm 0.00 in0.0 mm
10:25 AM 53.4°F11.9°C 49.0°F9.4°C 85% 4.7 mph NNE7.6 kmh NNE 10.7 mph17.2 kmh 29.84 in1010.5 mb 0.00 in0.0 mm 0.00 in0.0 mm 0.00 in0.0 mm
10:30 AM 53.4°F11.9°C 49.0°F9.4°C 85% 3.7 mph E6.0 kmh E 8.3 mph13.4 kmh 29.84 in1010.5 mb 0.00 in0.0 mm 0.00 in0.0 mm 0.00 in0.0 mm
10:35 AM 53.4°F11.9°C 48.7°F9.3°C 84% 3.9 mph SW6.3 kmh SW 7.6 mph12.2 kmh 29.84 in1010.5 mb 0.00 in0.0 mm 0.00 in0.0 mm 0.00 in0.0 mm
10:40 AM 53.4°F11.9°C 48.7°F9.3°C 84% 3.7 mph NW6.0 kmh NW 6.9 mph11.1 kmh 29.84 in1010.5 mb 0.00 in0.0 mm 0.00 in0.0 mm 0.00 in0.0 mm
10:45 AM 53.4°F11.9°C 48.7°F9.3°C 84% 4.9 mph SE7.9 kmh SE 16.8 mph27.0 kmh 29.84 in1010.5 mb 0.00 in0.0 mm 0.00 in0.0 mm 0.00 in0.0 mm
10:50 AM 53.4°F11.9°C 48.7°F9.3°C 84% 5.0 mph SW8.0 kmh SW 11.4 mph18.3 kmh 29.84 in1010.5 mb 0.00 in0.0 mm 0.00 in0.0 mm 0.00 in0.0 mm
10:55 AM 53.5°F11.9°C 48.4°F9.1°C 83% 4.8 mph SSE7.7 kmh SSE 13.0 mph20.9 kmh 29.84 in1010.5 mb 0.00 in0.0 mm 0.00 in0.0 mm 0.00 in0.0 mm
11:00 AM 53.6°F12.0°C 48.5°F9.2°C 83% 6.2 mph SSW10.0 kmh SSW 13.0 mph20.9 kmh 29.84 in1010.5 mb 0.00 in0.0 mm 0.00 in0.0 mm 0.00 in0.0 mm
11:05 AM 53.6°F12.0°C 48.2°F9.0°C 82% 7.1 mph SSE11.4 kmh SSE 17.4 mph28.0 kmh 29.84 in1010.5 mb 0.00 in0.0 mm 0.00 in0.0 mm 0.00 in0.0 mm
11:10 AM 53.6°F12.0°C 48.2°F9.0°C 82% 4.7 mph WNW7.6 kmh WNW 14.5 mph23.3 kmh 29.84 in1010.5 mb 0.00 in0.0 mm 0.00 in0.0 mm 0.00 in0.0 mm
11:15 AM 53.4°F11.9°C 48.4°F9.1°C 83% 7.1 mph WNW11.4 kmh WNW 20.6 mph33.2 kmh 29.84 in1010.5 mb 0.00 in0.0 mm 0.00 in0.0 mm 0.00 in0.0 mm
11:20 AM 53.5°F11.9°C 48.4°F9.1°C 83% 4.7 mph SSW7.6 kmh SSW 12.1 mph19.5 kmh 29.84 in1010.5 mb 0.00 in0.0 mm 0.00 in0.0 mm 0.00 in0.0 mm
11:25 AM 53.4°F11.9°C 48.4°F9.1°C 83% 4.7 mph SW7.6 kmh SW 11.4 mph18.3 kmh 29.84 in1010.5 mb 0.00 in0.0 mm 0.00 in0.0 mm 0.00 in0.0 mm
11:30 AM 53.4°F11.9°C 48.4°F9.1°C 83% 5.2 mph WNW8.4 kmh WNW 13.6 mph21.9 kmh 29.83 in1010.2 mb 0.00 in0.0 mm 0.00 in0.0 mm 0.00 in0.0 mm
11:35 AM 53.4°F11.9°C 48.4°F9.1°C 83% 4.4 mph NNW7.1 kmh NNW 9.2 mph14.8 kmh 29.84 in1010.5 mb 0.00 in0.0 mm 0.00 in0.0 mm 0.00 in0.0 mm
11:40 AM 53.2°F11.8°C 48.2°F9.0°C 83% 6.7 mph S10.8 kmh S 21.3 mph34.3 kmh 29.84 in1010.5 mb 0.00 in0.0 mm 0.00 in0.0 mm 0.00 in0.0 mm
11:45 AM 53.2°F11.8°C 48.2°F9.0°C 83% 8.7 mph S14.0 kmh S 16.8 mph27.0 kmh 29.85 in1010.8 mb 0.00 in0.0 mm 0.00 in0.0 mm 0.00 in0.0 mm
11:50 AM 53.2°F11.8°C 48.1°F8.9°C 83% 4.6 mph E7.4 kmh E 13.0 mph20.9 kmh 29.85 in1010.8 mb 0.00 in0.0 mm 0.00 in0.0 mm 0.00 in0.0 mm
11:55 AM 53.1°F11.7°C 48.0°F8.9°C 83% 6.6 mph SW10.6 kmh SW 14.5 mph23.3 kmh 29.85 in1010.8 mb 0.00 in0.0 mm 0.00 in0.0 mm 0.00 in0.0 mm
12:00 PM 53.1°F11.7°C 48.0°F8.9°C 83% 7.2 mph SW11.6 kmh SW 13.6 mph21.9 kmh 29.86 in1011.2 mb 0.00 in0.0 mm 0.00 in0.0 mm 0.00 in0.0 mm
12:05 PM 53.1°F11.7°C 48.0°F8.9°C 83% 6.0 mph S9.7 kmh S 9.2 mph14.8 kmh 29.86 in1011.2 mb 0.00 in0.0 mm 0.00 in0.0 mm 0.00 in0.0 mm
12:10 PM 53.0°F11.7°C 47.9°F8.8°C 83% 6.3 mph SW10.1 kmh SW 13.6 mph21.9 kmh 29.86 in1011.2 mb 0.00 in0.0 mm 0.00 in0.0 mm 0.00 in0.0 mm
12:15 PM 53.1°F11.7°C 48.0°F8.9°C 83% 8.2 mph S13.2 kmh S 15.9 mph25.6 kmh 29.86 in1011.2 mb 0.00 in0.0 mm 0.00 in0.0 mm 0.00 in0.0 mm
12:20 PM 53.1°F11.7°C 48.0°F8.9°C 83% 7.6 mph S12.2 kmh S 13.6 mph21.9 kmh 29.86 in1011.2 mb 0.00 in0.0 mm 0.00 in0.0 mm 0.00 in0.0 mm
12:25 PM 53.1°F11.7°C 48.4°F9.1°C 84% 8.0 mph WSW12.9 kmh WSW 19.0 mph30.6 kmh 29.86 in1011.2 mb 0.00 in0.0 mm 0.00 in0.0 mm 0.00 in0.0 mm
12:30 PM 52.9°F11.6°C 48.2°F9.0°C 84% 8.9 mph S14.3 kmh S 19.7 mph31.7 kmh 29.86 in1011.2 mb 0.00 in0.0 mm 0.00 in0.0 mm 0.00 in0.0 mm
12:35 PM 52.9°F11.6°C 48.2°F9.0°C 84% 7.6 mph W12.2 kmh W 17.4 mph28.0 kmh 29.86 in1011.2 mb 0.00 in0.0 mm 0.00 in0.0 mm 0.00 in0.0 mm
12:40 PM 52.9°F11.6°C 48.1°F8.9°C 84% 7.0 mph S11.3 kmh S 13.0 mph20.9 kmh 29.86 in1011.2 mb 0.00 in0.0 mm 0.00 in0.0 mm 0.00 in0.0 mm
12:45 PM 52.7°F11.5°C 48.0°F8.9°C 84% 5.3 mph WSW8.5 kmh WSW 10.7 mph17.2 kmh 29.85 in1010.8 mb 0.00 in0.0 mm 0.00 in0.0 mm 0.00 in0.0 mm
12:50 PM 52.7°F11.5°C 48.2°F9.0°C 84% 5.7 mph WSW9.2 kmh WSW 12.1 mph19.5 kmh 29.86 in1011.2 mb 0.00 in0.0 mm 0.00 in0.0 mm 0.00 in0.0 mm
12:55 PM 52.7°F11.5°C 48.3°F9.1°C 85% 6.3 mph WNW10.1 kmh WNW 15.9 mph25.6 kmh 29.86 in1011.2 mb 0.00 in0.0 mm 0.00 in0.0 mm 0.00 in0.0 mm
01:00 PM 52.7°F11.5°C 48.3°F9.1°C 85% 5.1 mph S8.2 kmh S 21.3 mph34.3 kmh 29.86 in1011.2 mb 0.00 in0.0 mm 0.00 in0.0 mm 0.00 in0.0 mm
01:05 PM 52.7°F11.5°C 48.3°F9.1°C 85% 4.9 mph SSW7.9 kmh SSW 17.4 mph28.0 kmh 29.86 in1011.2 mb 0.00 in0.0 mm 0.00 in0.0 mm 0.00 in0.0 mm
01:10 PM 52.7°F11.5°C 48.4°F9.1°C 85% 4.4 mph SSW7.1 kmh SSW 13.0 mph20.9 kmh 29.86 in1011.2 mb 0.00 in0.0 mm 0.00 in0.0 mm 0.00 in0.0 mm
01:15 PM 52.7°F11.5°C 48.6°F9.2°C 86% 3.8 mph SW6.1 kmh SW 14.5 mph23.3 kmh 29.87 in1011.5 mb 0.00 in0.0 mm 0.00 in0.0 mm 0.00 in0.0 mm
01:20 PM 52.7°F11.5°C 48.6°F9.2°C 86% 5.5 mph SW8.9 kmh SW 14.5 mph23.3 kmh 29.87 in1011.5 mb 0.00 in0.0 mm 0.00 in0.0 mm 0.00 in0.0 mm
01:25 PM 52.7°F11.5°C 48.6°F9.2°C 86% 4.0 mph S6.4 kmh S 9.8 mph15.8 kmh 29.87 in1011.5 mb 0.00 in0.0 mm 0.00 in0.0 mm 0.00 in0.0 mm
01:30 PM 52.7°F11.5°C 48.6°F9.2°C 86% 4.9 mph W7.9 kmh W 12.1 mph19.5 kmh 29.88 in1011.9 mb 0.00 in0.0 mm 0.00 in0.0 mm 0.00 in0.0 mm
01:35 PM 52.7°F11.5°C 48.7°F9.3°C 86% 6.2 mph SW10.0 kmh SW 16.8 mph27.0 kmh 29.88 in1011.9 mb 0.00 in0.0 mm 0.00 in0.0 mm 0.00 in0.0 mm
01:40 PM 52.9°F11.6°C 48.7°F9.3°C 86% 4.9 mph S7.9 kmh S 10.7 mph17.2 kmh 29.88 in1011.9 mb 0.00 in0.0 mm 0.00 in0.0 mm 0.00 in0.0 mm
01:45 PM 52.8°F11.6°C 48.5°F9.2°C 85% 7.8 mph W12.6 kmh W 15.9 mph25.6 kmh 29.88 in1011.9 mb 0.00 in0.0 mm 0.00 in0.0 mm 0.00 in0.0 mm
01:50 PM 52.7°F11.5°C 48.3°F9.1°C 85% 8.4 mph SE13.5 kmh SE 15.9 mph25.6 kmh 29.87 in1011.5 mb 0.00 in0.0 mm 0.00 in0.0 mm 0.00 in0.0 mm
01:55 PM 52.7°F11.5°C 48.3°F9.1°C 85% 7.5 mph S12.1 kmh S 16.8 mph27.0 kmh 29.88 in1011.9 mb 0.00 in0.0 mm 0.00 in0.0 mm 0.00 in0.0 mm
02:00 PM 52.7°F11.5°C 48.3°F9.1°C 85% 6.7 mph SSW10.8 kmh SSW 12.1 mph19.5 kmh 29.88 in1011.9 mb 0.00 in0.0 mm 0.00 in0.0 mm 0.00 in0.0 mm
02:05 PM 52.7°F11.5°C 48.3°F9.1°C 85% 6.9 mph SW11.1 kmh SW 10.7 mph17.2 kmh 29.88 in1011.9 mb 0.00 in0.0 mm 0.00 in0.0 mm 0.00 in0.0 mm
02:10 PM 52.7°F11.5°C 48.3°F9.1°C 85% 6.9 mph SW11.1 kmh SW 14.5 mph23.3 kmh 29.87 in1011.5 mb 0.00 in0.0 mm 0.00 in0.0 mm 0.00 in0.0 mm
02:15 PM 52.7°F11.5°C 48.3°F9.1°C 85% 7.1 mph S11.4 kmh S 12.1 mph19.5 kmh 29.87 in1011.5 mb 0.00 in0.0 mm 0.00 in0.0 mm 0.00 in0.0 mm
02:20 PM 52.7°F11.5°C 48.3°F9.1°C 85% 6.6 mph SSW10.6 kmh SSW 13.0 mph20.9 kmh 29.87 in1011.5 mb 0.00 in0.0 mm 0.00 in0.0 mm 0.00 in0.0 mm
02:25 PM 52.7°F11.5°C 48.3°F9.1°C 85% 6.6 mph SW10.6 kmh SW 11.4 mph18.3 kmh 29.87 in1011.5 mb 0.00 in0.0 mm 0.00 in0.0 mm 0.00 in0.0 mm
02:30 PM 52.7°F11.5°C 48.3°F9.1°C 85% 7.0 mph E11.3 kmh E 13.0 mph20.9 kmh 29.88 in1011.9 mb 0.00 in0.0 mm 0.00 in0.0 mm 0.00 in0.0 mm
02:35 PM 52.6°F11.4°C 47.9°F8.8°C 84% 7.5 mph SW12.1 kmh SW 15.2 mph24.5 kmh 29.88 in1011.9 mb 0.00 in0.0 mm 0.00 in0.0 mm 0.00 in0.0 mm
02:40 PM 52.6°F11.4°C 47.9°F8.8°C 84% 7.5 mph WSW12.1 kmh WSW 13.6 mph21.9 kmh 29.88 in1011.9 mb 0.00 in0.0 mm 0.00 in0.0 mm 0.00 in0.0 mm
02:45 PM 52.5°F11.4°C 47.8°F8.8°C 84% 8.9 mph S14.3 kmh S 17.4 mph28.0 kmh 29.88 in1011.9 mb 0.00 in0.0 mm 0.00 in0.0 mm 0.00 in0.0 mm
02:50 PM 52.5°F11.4°C 47.8°F8.8°C 84% 7.0 mph SSW11.3 kmh SSW 15.2 mph24.5 kmh 29.89 in1012.2 mb 0.00 in0.0 mm 0.00 in0.0 mm 0.00 in0.0 mm
02:55 PM 52.5°F11.4°C 47.8°F8.8°C 84% 7.6 mph SW12.2 kmh SW 13.6 mph21.9 kmh 29.89 in1012.2 mb 0.00 in0.0 mm 0.00 in0.0 mm 0.00 in0.0 mm
03:00 PM 52.5°F11.4°C 47.8°F8.8°C 84% 8.4 mph WSW13.5 kmh WSW 15.2 mph24.5 kmh 29.89 in1012.2 mb 0.00 in0.0 mm 0.00 in0.0 mm 0.00 in0.0 mm
03:05 PM 52.5°F11.4°C 47.8°F8.8°C 84% 7.9 mph S12.7 kmh S 19.7 mph31.7 kmh 29.89 in1012.2 mb 0.00 in0.0 mm 0.00 in0.0 mm 0.00 in0.0 mm
03:10 PM 52.5°F11.4°C 47.8°F8.8°C 84% 6.7 mph S10.8 kmh S 14.5 mph23.3 kmh 29.88 in1011.9 mb 0.00 in0.0 mm 0.00 in0.0 mm 0.00 in0.0 mm
03:15 PM 52.5°F11.4°C 47.8°F8.8°C 84% 5.9 mph S9.5 kmh S 15.2 mph24.5 kmh 29.88 in1011.9 mb 0.00 in0.0 mm 0.00 in0.0 mm 0.00 in0.0 mm
03:20 PM 52.3°F11.3°C 47.6°F8.7°C 84% 4.9 mph SSW7.9 kmh SSW 15.9 mph25.6 kmh 29.89 in1012.2 mb 0.00 in0.0 mm 0.00 in0.0 mm 0.00 in0.0 mm
03:25 PM 52.3°F11.3°C 47.6°F8.7°C 84% 2.8 mph NE4.5 kmh NE 9.2 mph14.8 kmh 29.89 in1012.2 mb 0.00 in0.0 mm 0.00 in0.0 mm 0.00 in0.0 mm
03:30 PM 52.3°F11.3°C 47.6°F8.7°C 84% 3.1 mph E5.0 kmh E 13.0 mph20.9 kmh 29.89 in1012.2 mb 0.00 in0.0 mm 0.00 in0.0 mm 0.00 in0.0 mm
03:35 PM 52.2°F11.2°C 47.5°F8.6°C 84% 3.2 mph NNW5.1 kmh NNW 6.9 mph11.1 kmh 29.89 in1012.2 mb 0.00 in0.0 mm 0.00 in0.0 mm 0.00 in0.0 mm
03:40 PM 52.1°F11.2°C 47.4°F8.6°C 84% 4.3 mph SE6.9 kmh SE 19.7 mph31.7 kmh 29.89 in1012.2 mb 0.00 in0.0 mm 0.00 in0.0 mm 0.00 in0.0 mm
03:45 PM 52.1°F11.2°C 47.4°F8.6°C 84% 4.0 mph S6.4 kmh S 9.2 mph14.8 kmh 29.90 in1012.5 mb 0.00 in0.0 mm 0.00 in0.0 mm 0.00 in0.0 mm
03:50 PM 52.0°F11.1°C 47.1°F8.4°C 83% 2.8 mph WSW4.5 kmh WSW 6.9 mph11.1 kmh 29.90 in1012.5 mb 0.00 in0.0 mm 0.00 in0.0 mm 0.00 in0.0 mm
03:55 PM 51.9°F11.1°C 46.9°F8.3°C 83% 2.4 mph ENE3.9 kmh ENE 6.9 mph11.1 kmh 29.91 in1012.9 mb 0.00 in0.0 mm 0.00 in0.0 mm 0.00 in0.0 mm
04:00 PM 51.8°F11.0°C 46.8°F8.2°C 83% 2.1 mph S3.4 kmh S 6.0 mph9.7 kmh 29.91 in1012.9 mb 0.00 in0.0 mm 0.00 in0.0 mm 0.00 in0.0 mm
04:05 PM 51.8°F11.0°C 46.8°F8.2°C 83% 3.8 mph 6.1 kmh 6.9 mph11.1 kmh 29.92 in1013.2 mb 0.00 in0.0 mm 0.00 in0.0 mm 0.00 in0.0 mm
04:10 PM 51.8°F11.0°C 46.8°F8.2°C 83% 3.4 mph NNE5.5 kmh NNE 6.9 mph11.1 kmh 29.92 in1013.2 mb 0.00 in0.0 mm 0.00 in0.0 mm 0.00 in0.0 mm
04:15 PM 51.8°F11.0°C 46.9°F8.3°C 83% 2.0 mph NE3.2 kmh NE 6.0 mph9.7 kmh 29.92 in1013.2 mb 0.00 in0.0 mm 0.00 in0.0 mm 0.00 in0.0 mm
04:20 PM 51.7°F10.9°C 47.2°F8.4°C 84% 3.1 mph E5.0 kmh E 5.4 mph8.7 kmh 29.92 in1013.2 mb 0.00 in0.0 mm 0.00 in0.0 mm 0.00 in0.0 mm
04:25 PM 51.6°F10.9°C 47.2°F8.4°C 85% 3.4 mph E5.5 kmh E 7.6 mph12.2 kmh 29.92 in1013.2 mb 0.00 in0.0 mm 0.00 in0.0 mm 0.00 in0.0 mm
04:30 PM 51.4°F10.8°C 47.0°F8.3°C 85% 4.2 mph E6.8 kmh E 10.7 mph17.2 kmh 29.92 in1013.2 mb 0.00 in0.0 mm 0.00 in0.0 mm 0.00 in0.0 mm
04:35 PM 51.3°F10.7°C 46.9°F8.3°C 85% 4.1 mph E6.6 kmh E 8.3 mph13.4 kmh 29.92 in1013.2 mb 0.00 in0.0 mm 0.00 in0.0 mm 0.00 in0.0 mm
04:40 PM 51.3°F10.7°C 46.9°F8.3°C 85% 3.5 mph E5.6 kmh E 8.3 mph13.4 kmh 29.92 in1013.2 mb 0.00 in0.0 mm 0.00 in0.0 mm 0.00 in0.0 mm
04:45 PM 51.3°F10.7°C 46.9°F8.3°C 85% 4.4 mph NNE7.1 kmh NNE 9.8 mph15.8 kmh 29.93 in1013.5 mb 0.00 in0.0 mm 0.00 in0.0 mm 0.00 in0.0 mm
04:50 PM 51.3°F10.7°C 46.9°F8.3°C 85% 5.4 mph E8.7 kmh E 9.2 mph14.8 kmh 29.93 in1013.5 mb 0.00 in0.0 mm 0.00 in0.0 mm 0.00 in0.0 mm
04:55 PM 51.3°F10.7°C 47.0°F8.3°C 85% 5.9 mph ESE9.5 kmh ESE 13.0 mph20.9 kmh 29.93 in1013.5 mb 0.00 in0.0 mm 0.00 in0.0 mm 0.00 in0.0 mm
05:00 PM 51.3°F10.7°C 47.0°F8.3°C 85% 6.5 mph E10.5 kmh E 15.9 mph25.6 kmh 29.93 in1013.5 mb 0.00 in0.0 mm 0.00 in0.0 mm 0.00 in0.0 mm
05:05 PM 51.3°F10.7°C 47.2°F8.4°C 86% 6.4 mph E10.3 kmh E 15.9 mph25.6 kmh 29.93 in1013.5 mb 0.00 in0.0 mm 0.00 in0.0 mm 0.00 in0.0 mm
05:10 PM 51.3°F10.7°C 47.2°F8.4°C 86% 5.2 mph N8.4 kmh N 12.1 mph19.5 kmh 29.93 in1013.5 mb 0.00 in0.0 mm 0.00 in0.0 mm 0.00 in0.0 mm
05:15 PM 51.2°F10.7°C 47.2°F8.4°C 86% 3.5 mph NNE5.6 kmh NNE 9.8 mph15.8 kmh 29.93 in1013.5 mb 0.00 in0.0 mm 0.00 in0.0 mm 0.00 in0.0 mm
05:20 PM 51.1°F10.6°C 47.0°F8.3°C 86% 5.3 mph E8.5 kmh E 12.1 mph19.5 kmh 29.93 in1013.5 mb 0.00 in0.0 mm 0.00 in0.0 mm 0.00 in0.0 mm
05:25 PM 51.1°F10.6°C 47.0°F8.3°C 86% 5.7 mph E9.2 kmh E 9.8 mph15.8 kmh 29.94 in1013.9 mb 0.00 in0.0 mm 0.00 in0.0 mm 0.00 in0.0 mm
05:30 PM 51.1°F10.6°C 47.0°F8.3°C 86% 4.7 mph ESE7.6 kmh ESE 9.8 mph15.8 kmh 29.94 in1013.9 mb 0.00 in0.0 mm 0.00 in0.0 mm 0.00 in0.0 mm
05:35 PM 51.1°F10.6°C 47.0°F8.3°C 86% 3.1 mph NE5.0 kmh NE 7.6 mph12.2 kmh 29.95 in1014.2 mb 0.00 in0.0 mm 0.00 in0.0 mm 0.00 in0.0 mm
05:40 PM 51.1°F10.6°C 47.0°F8.3°C 86% 2.4 mph N3.9 kmh N 6.9 mph11.1 kmh 29.95 in1014.2 mb 0.00 in0.0 mm 0.00 in0.0 mm 0.00 in0.0 mm
05:45 PM 51.0°F10.6°C 47.2°F8.4°C 86% 2.1 mph NE3.4 kmh NE 6.0 mph9.7 kmh 29.95 in1014.2 mb 0.00 in0.0 mm 0.00 in0.0 mm 0.00 in0.0 mm
05:50 PM 50.9°F10.5°C 47.2°F8.4°C 87% 1.6 mph N2.6 kmh N 4.5 mph7.2 kmh 29.95 in1014.2 mb 0.00 in0.0 mm 0.00 in0.0 mm 0.00 in0.0 mm
05:55 PM 50.7°F10.4°C 47.0°F8.3°C 87% 0.8 mph NW1.3 kmh NW 2.2 mph3.5 kmh 29.95 in1014.2 mb 0.00 in0.0 mm 0.00 in0.0 mm 0.00 in0.0 mm
06:00 PM 50.7°F10.4°C 47.0°F8.3°C 87% 2.1 mph ENE3.4 kmh ENE 5.4 mph8.7 kmh 29.96 in1014.6 mb 0.00 in0.0 mm 0.00 in0.0 mm 0.00 in0.0 mm
06:05 PM 50.7°F10.4°C 47.0°F8.3°C 87% 2.2 mph E3.5 kmh E 4.5 mph7.2 kmh 29.96 in1014.6 mb 0.00 in0.0 mm 0.00 in0.0 mm 0.00 in0.0 mm
06:10 PM 50.6°F10.3°C 47.1°F8.4°C 88% 1.9 mph ENE3.1 kmh ENE 4.5 mph7.2 kmh 29.96 in1014.6 mb 0.00 in0.0 mm 0.00 in0.0 mm 0.00 in0.0 mm
06:15 PM 50.5°F10.3°C 47.1°F8.4°C 88% 1.5 mph NNW2.4 kmh NNW 7.6 mph12.2 kmh 29.97 in1014.9 mb 0.00 in0.0 mm 0.00 in0.0 mm 0.00 in0.0 mm
06:20 PM 50.5°F10.3°C 47.1°F8.4°C 88% 2.0 mph NW3.2 kmh NW 6.9 mph11.1 kmh 29.97 in1014.9 mb 0.00 in0.0 mm 0.00 in0.0 mm 0.00 in0.0 mm
06:25 PM 50.5°F10.3°C 47.1°F8.4°C 88% 2.8 mph NE4.5 kmh NE 7.6 mph12.2 kmh 29.97 in1014.9 mb 0.00 in0.0 mm 0.00 in0.0 mm 0.00 in0.0 mm
06:30 PM 50.5°F10.3°C 47.1°F8.4°C 88% 4.3 mph NE6.9 kmh NE 9.2 mph14.8 kmh 29.97 in1014.9 mb 0.00 in0.0 mm 0.00 in0.0 mm 0.00 in0.0 mm
06:35 PM 50.5°F10.3°C 47.4°F8.6°C 89% 2.8 mph ENE4.5 kmh ENE 6.0 mph9.7 kmh 29.98 in1015.2 mb 0.00 in0.0 mm 0.00 in0.0 mm 0.00 in0.0 mm
06:40 PM 50.5°F10.3°C 47.4°F8.6°C 89% 1.5 mph WNW2.4 kmh WNW 3.8 mph6.1 kmh 29.97 in1014.9 mb 0.00 in0.0 mm 0.00 in0.0 mm 0.00 in0.0 mm
06:45 PM 50.5°F10.3°C 47.4°F8.6°C 89% 2.4 mph NE3.9 kmh NE 6.9 mph11.1 kmh 29.97 in1014.9 mb 0.00 in0.0 mm 0.00 in0.0 mm 0.00 in0.0 mm
06:50 PM 50.5°F10.3°C 47.4°F8.6°C 89% 2.4 mph NW3.9 kmh NW 6.9 mph11.1 kmh 29.98 in1015.2 mb 0.00 in0.0 mm 0.00 in0.0 mm 0.00 in0.0 mm
06:55 PM 50.5°F10.3°C 47.4°F8.6°C 89% 1.8 mph WSW2.9 kmh WSW 5.4 mph8.7 kmh 29.98 in1015.2 mb 0.00 in0.0 mm 0.00 in0.0 mm 0.00 in0.0 mm
07:00 PM 50.4°F10.2°C 47.3°F8.5°C 89% 1.9 mph SW3.1 kmh SW 5.4 mph8.7 kmh 29.98 in1015.2 mb 0.00 in0.0 mm 0.00 in0.0 mm 0.00 in0.0 mm
07:05 PM 50.1°F10.1°C 46.9°F8.3°C 89% 1.5 mph NW2.4 kmh NW 4.5 mph7.2 kmh 29.98 in1015.2 mb 0.00 in0.0 mm 0.00 in0.0 mm 0.00 in0.0 mm
07:10 PM 49.9°F9.9°C 46.9°F8.3°C 89% 1.4 mph NNW2.3 kmh NNW 3.8 mph6.1 kmh 29.99 in1015.6 mb 0.00 in0.0 mm 0.00 in0.0 mm 0.00 in0.0 mm
07:15 PM 49.8°F9.9°C 47.0°F8.3°C 90% 1.0 mph WSW1.6 kmh WSW 3.1 mph5.0 kmh 29.99 in1015.6 mb 0.00 in0.0 mm 0.00 in0.0 mm 0.00 in0.0 mm
07:20 PM 49.6°F9.8°C 46.8°F8.2°C 90% 0.3 mph NNW0.5 kmh NNW 2.2 mph3.5 kmh 29.99 in1015.6 mb 0.00 in0.0 mm 0.00 in0.0 mm 0.00 in0.0 mm
07:25 PM 49.3°F9.6°C 46.5°F8.1°C 90% 0.9 mph SSW1.4 kmh SSW 4.5 mph7.2 kmh 29.99 in1015.6 mb 0.00 in0.0 mm 0.00 in0.0 mm 0.00 in0.0 mm
07:30 PM 48.9°F9.4°C 46.1°F7.8°C 90% 1.0 mph S1.6 kmh S 8.3 mph13.4 kmh 29.99 in1015.6 mb 0.00 in0.0 mm 0.00 in0.0 mm 0.00 in0.0 mm
07:35 PM 48.6°F9.2°C 45.8°F7.7°C 90% 0.6 mph E1.0 kmh E 3.8 mph6.1 kmh 29.99 in1015.6 mb 0.00 in0.0 mm 0.00 in0.0 mm 0.00 in0.0 mm
07:40 PM 48.2°F9.0°C 45.5°F7.5°C 90% 0.7 mph ENE1.1 kmh ENE 3.8 mph6.1 kmh 30.00 in1015.9 mb 0.00 in0.0 mm 0.00 in0.0 mm 0.00 in0.0 mm
07:45 PM 48.0°F8.9°C 45.5°F7.5°C 91% 1.1 mph NE1.8 kmh NE 6.0 mph9.7 kmh 29.99 in1015.6 mb 0.00 in0.0 mm 0.00 in0.0 mm 0.00 in0.0 mm
07:50 PM 47.8°F8.8°C 45.4°F7.4°C 91% 1.2 mph 1.9 kmh 4.5 mph7.2 kmh 29.99 in1015.6 mb 0.00 in0.0 mm 0.00 in0.0 mm 0.00 in0.0 mm
07:55 PM 47.8°F8.8°C 45.6°F7.6°C 92% 1.2 mph NE1.9 kmh NE 4.5 mph7.2 kmh 29.99 in1015.6 mb 0.00 in0.0 mm 0.00 in0.0 mm 0.00 in0.0 mm
08:00 PM 47.6°F8.7°C 45.4°F7.4°C 92% 0.5 mph ENE0.8 kmh ENE 3.8 mph6.1 kmh 29.99 in1015.6 mb 0.00 in0.0 mm 0.00 in0.0 mm 0.00 in0.0 mm
08:05 PM 47.5°F8.6°C 45.3°F7.4°C 92% 0.7 mph E1.1 kmh E 1.6 mph2.6 kmh 29.99 in1015.6 mb 0.00 in0.0 mm 0.00 in0.0 mm 0.00 in0.0 mm
08:10 PM 47.4°F8.6°C 45.3°F7.4°C 92% 0.6 mph E1.0 kmh E 1.6 mph2.6 kmh 30.00 in1015.9 mb 0.00 in0.0 mm 0.00 in0.0 mm 0.00 in0.0 mm
08:15 PM 47.4°F8.6°C 45.4°F7.4°C 93% 1.0 mph NE1.6 kmh NE 2.2 mph3.5 kmh 30.00 in1015.9 mb 0.00 in0.0 mm 0.00 in0.0 mm 0.00 in0.0 mm
08:20 PM 47.5°F8.6°C 45.7°F7.6°C 94% 0.3 mph NNW0.5 kmh NNW 2.2 mph3.5 kmh 30.00 in1015.9 mb 0.00 in0.0 mm 0.00 in0.0 mm 0.00 in0.0 mm
08:25 PM 47.5°F8.6°C 45.8°F7.7°C 94% Calm Calm 1.6 mph2.6 kmh 30.00 in1015.9 mb 0.00 in0.0 mm 0.00 in0.0 mm 0.00 in0.0 mm
08:30 PM 47.3°F8.5°C 45.7°F7.6°C 94% 0.3 mph ENE0.5 kmh ENE 2.2 mph3.5 kmh 30.00 in1015.9 mb 0.00 in0.0 mm 0.00 in0.0 mm 0.00 in0.0 mm
08:35 PM 47.1°F8.4°C 45.5°F7.5°C 94% 0.8 mph SSE1.3 kmh SSE 3.1 mph5.0 kmh 30.00 in1015.9 mb 0.00 in0.0 mm 0.00 in0.0 mm 0.00 in0.0 mm
08:40 PM 47.0°F8.3°C 45.4°F7.4°C 94% 0.7 mph WSW1.1 kmh WSW 2.2 mph3.5 kmh 30.00 in1015.9 mb 0.00 in0.0 mm 0.00 in0.0 mm 0.00 in0.0 mm
08:45 PM 47.0°F8.3°C 45.4°F7.4°C 94% 0.7 mph SW1.1 kmh SW 2.2 mph3.5 kmh 30.00 in1015.9 mb 0.00 in0.0 mm 0.00 in0.0 mm 0.00 in0.0 mm
08:50 PM 47.0°F8.3°C 45.6°F7.6°C 95% 0.7 mph NW1.1 kmh NW 3.8 mph6.1 kmh 30.00 in1015.9 mb 0.00 in0.0 mm 0.00 in0.0 mm 0.00 in0.0 mm
08:55 PM 46.9°F8.3°C 45.6°F7.6°C 95% 1.5 mph WSW2.4 kmh WSW 3.8 mph6.1 kmh 30.00 in1015.9 mb 0.00 in0.0 mm 0.00 in0.0 mm 0.00 in0.0 mm
09:00 PM 47.2°F8.4°C 45.9°F7.7°C 95% 2.0 mph WSW3.2 kmh WSW 3.8 mph6.1 kmh 30.00 in1015.9 mb 0.00 in0.0 mm 0.00 in0.0 mm 0.00 in0.0 mm
09:05 PM 47.7°F8.7°C 46.5°F8.1°C 96% 1.4 mph WSW2.3 kmh WSW 3.1 mph5.0 kmh 30.00 in1015.9 mb 0.00 in0.0 mm 0.00 in0.0 mm 0.00 in0.0 mm
09:10 PM 48.0°F8.9°C 46.9°F8.3°C 96% 1.8 mph SW2.9 kmh SW 4.5 mph7.2 kmh 30.00 in1015.9 mb 0.00 in0.0 mm 0.00 in0.0 mm 0.00 in0.0 mm
09:15 PM 48.4°F9.1°C 47.1°F8.4°C 95% 2.8 mph SSW4.5 kmh SSW 6.0 mph9.7 kmh 30.00 in1015.9 mb 0.00 in0.0 mm 0.00 in0.0 mm 0.00 in0.0 mm
09:20 PM 48.7°F9.3°C 47.6°F8.7°C 96% 3.3 mph WNW5.3 kmh WNW 7.6 mph12.2 kmh 30.00 in1015.9 mb 0.00 in0.0 mm 0.00 in0.0 mm 0.00 in0.0 mm
09:25 PM 49.0°F9.4°C 47.9°F8.8°C 96% 2.5 mph SW4.0 kmh SW 5.4 mph8.7 kmh 30.00 in1015.9 mb 0.00 in0.0 mm 0.00 in0.0 mm 0.00 in0.0 mm
09:30 PM 49.2°F9.6°C 48.1°F8.9°C 96% 2.1 mph W3.4 kmh W 6.0 mph9.7 kmh 30.00 in1015.9 mb 0.00 in0.0 mm 0.00 in0.0 mm 0.00 in0.0 mm
09:35 PM 49.4°F9.7°C 48.3°F9.1°C 96% 2.8 mph NW4.5 kmh NW 6.0 mph9.7 kmh 29.99 in1015.6 mb 0.00 in0.0 mm 0.00 in0.0 mm 0.00 in0.0 mm
09:40 PM 49.7°F9.8°C 48.6°F9.2°C 96% 1.9 mph NW3.1 kmh NW 5.4 mph8.7 kmh 29.99 in1015.6 mb 0.00 in0.0 mm 0.00 in0.0 mm 0.00 in0.0 mm
09:45 PM 49.9°F9.9°C 48.7°F9.3°C 96% 2.2 mph NW3.5 kmh NW 5.4 mph8.7 kmh 29.99 in1015.6 mb 0.00 in0.0 mm 0.00 in0.0 mm 0.00 in0.0 mm
09:50 PM 50.0°F10.0°C 48.6°F9.2°C 95% 2.0 mph N3.2 kmh N 3.8 mph6.1 kmh 29.99 in1015.6 mb 0.00 in0.0 mm 0.00 in0.0 mm 0.00 in0.0 mm
09:55 PM 50.0°F10.0°C 48.6°F9.2°C 95% 2.3 mph NW3.7 kmh NW 4.5 mph7.2 kmh 29.99 in1015.6 mb 0.00 in0.0 mm 0.00 in0.0 mm 0.00 in0.0 mm
10:00 PM 50.0°F10.0°C 48.5°F9.2°C 94% 2.6 mph NW4.2 kmh NW 5.4 mph8.7 kmh 30.00 in1015.9 mb 0.00 in0.0 mm 0.00 in0.0 mm 0.00 in0.0 mm
10:05 PM 50.2°F10.1°C 48.5°F9.2°C 94% 3.1 mph NE5.0 kmh NE 4.5 mph7.2 kmh 30.00 in1015.9 mb 0.00 in0.0 mm 0.00 in0.0 mm 0.00 in0.0 mm
10:10 PM 50.3°F10.2°C 48.6°F9.2°C 94% 3.2 mph E5.1 kmh E 6.9 mph11.1 kmh 30.00 in1015.9 mb 0.00 in0.0 mm 0.00 in0.0 mm 0.00 in0.0 mm
10:15 PM 50.4°F10.2°C 48.7°F9.3°C 94% 2.1 mph WNW3.4 kmh WNW 4.5 mph7.2 kmh 30.00 in1015.9 mb 0.00 in0.0 mm 0.00 in0.0 mm 0.00 in0.0 mm
10:20 PM 50.4°F10.2°C 48.7°F9.3°C 94% 2.6 mph NE4.2 kmh NE 5.4 mph8.7 kmh 30.00 in1015.9 mb 0.00 in0.0 mm 0.00 in0.0 mm 0.00 in0.0 mm
10:25 PM 50.4°F10.2°C 48.4°F9.1°C 93% 2.7 mph WNW4.3 kmh WNW 6.0 mph9.7 kmh 30.00 in1015.9 mb 0.00 in0.0 mm 0.00 in0.0 mm 0.00 in0.0 mm
10:30 PM 50.5°F10.3°C 48.5°F9.2°C 93% 2.7 mph NNE4.3 kmh NNE 5.4 mph8.7 kmh 30.00 in1015.9 mb 0.00 in0.0 mm 0.00 in0.0 mm 0.00 in0.0 mm
10:35 PM 50.6°F10.3°C 48.6°F9.2°C 93% 3.0 mph NNE4.8 kmh NNE 6.9 mph11.1 kmh 30.00 in1015.9 mb 0.00 in0.0 mm 0.00 in0.0 mm 0.00 in0.0 mm
10:40 PM 50.7°F10.4°C 48.8°F9.3°C 93% 1.2 mph NW1.9 kmh NW 3.8 mph6.1 kmh 30.00 in1015.9 mb 0.00 in0.0 mm 0.00 in0.0 mm 0.00 in0.0 mm
10:45 PM 50.7°F10.4°C 48.7°F9.3°C 93% 2.0 mph N3.2 kmh N 3.8 mph6.1 kmh 30.00 in1015.9 mb 0.00 in0.0 mm 0.00 in0.0 mm 0.00 in0.0 mm
10:50 PM 50.6°F10.3°C 48.6°F9.2°C 93% 1.4 mph N2.3 kmh N 2.2 mph3.5 kmh 30.00 in1015.9 mb 0.00 in0.0 mm 0.00 in0.0 mm 0.00 in0.0 mm
10:55 PM 50.5°F10.3°C 48.6°F9.2°C 93% 1.5 mph N2.4 kmh N 3.1 mph5.0 kmh 30.00 in1015.9 mb 0.00 in0.0 mm 0.00 in0.0 mm 0.00 in0.0 mm
11:00 PM 50.5°F10.3°C 48.6°F9.2°C 93% 1.0 mph NE1.6 kmh NE 3.1 mph5.0 kmh 30.00 in1015.9 mb 0.00 in0.0 mm 0.00 in0.0 mm 0.00 in0.0 mm
11:05 PM 50.5°F10.3°C 48.6°F9.2°C 93% 0.8 mph NE1.3 kmh NE 3.8 mph6.1 kmh 30.00 in1015.9 mb 0.00 in0.0 mm 0.00 in0.0 mm 0.00 in0.0 mm
11:10 PM 50.5°F10.3°C 48.5°F9.2°C 93% 1.2 mph 1.9 kmh 3.1 mph5.0 kmh 30.01 in1016.3 mb 0.00 in0.0 mm 0.00 in0.0 mm 0.00 in0.0 mm
11:15 PM 50.5°F10.3°C 48.6°F9.2°C 93% 2.2 mph ENE3.5 kmh ENE 5.4 mph8.7 kmh 30.01 in1016.3 mb 0.00 in0.0 mm 0.00 in0.0 mm 0.00 in0.0 mm
11:20 PM 50.5°F10.3°C 48.6°F9.2°C 93% 0.7 mph WNW1.1 kmh WNW 2.2 mph3.5 kmh 30.01 in1016.3 mb 0.00 in0.0 mm 0.00 in0.0 mm 0.00 in0.0 mm
11:25 PM 50.5°F10.3°C 48.6°F9.2°C 93% 0.9 mph W1.4 kmh W 3.8 mph6.1 kmh 30.01 in1016.3 mb 0.00 in0.0 mm 0.00 in0.0 mm 0.00 in0.0 mm
11:30 PM 50.5°F10.3°C 48.6°F9.2°C 93% 1.1 mph W1.8 kmh W 3.8 mph6.1 kmh 30.01 in1016.3 mb 0.00 in0.0 mm 0.00 in0.0 mm 0.00 in0.0 mm
11:35 PM 50.5°F10.3°C 48.6°F9.2°C 93% 0.6 mph N1.0 kmh N 2.2 mph3.5 kmh 30.01 in1016.3 mb 0.00 in0.0 mm 0.00 in0.0 mm 0.00 in0.0 mm
11:40 PM 50.5°F10.3°C 48.5°F9.2°C 93% 1.4 mph NW2.3 kmh NW 3.1 mph5.0 kmh 30.01 in1016.3 mb 0.00 in0.0 mm 0.00 in0.0 mm 0.00 in0.0 mm
11:45 PM 50.4°F10.2°C 48.4°F9.1°C 93% 1.5 mph WSW2.4 kmh WSW 3.1 mph5.0 kmh 30.01 in1016.3 mb 0.00 in0.0 mm 0.00 in0.0 mm 0.00 in0.0 mm
11:50 PM 50.4°F10.2°C 48.4°F9.1°C 93% 0.6 mph W1.0 kmh W 2.2 mph3.5 kmh 30.01 in1016.3 mb 0.00 in0.0 mm 0.00 in0.0 mm 0.00 in0.0 mm
11:55 PM 50.3°F10.2°C 48.4°F9.1°C 93% 0.6 mph WSW1.0 kmh WSW 2.2 mph3.5 kmh 30.01 in1016.3 mb 0.00 in0.0 mm 0.00 in0.0 mm 0.00 in0.0 mm